Weather reports worldwide

Advertisment
Epinal, France (7173): temperature & dewpoint: 19.06.2018 04:00:00 - 25.06.2018 04:00:00 (CEST)Epinal, France (7173): wind speed & gusts: 19.06.2018 04:00:00 - 25.06.2018 04:00:00 (CEST)Epinal, France (7173): wind direction: 19.06.2018 04:00:00 - 25.06.2018 04:00:00 (CEST)Epinal, France (7173): sunshine duration: 19.06.2018 04:00:00 - 25.06.2018 04:00:00 (CEST)Epinal, France (7173): precipitation: 19.06.2018 04:00:00 - 25.06.2018 04:00:00 (CEST)
Date & Time tt [°C] td [°C] ff [km/h] ff [kn] fx [km/h] fx [kn] dd sd [min] rr [mm]
25.06.2018 04:00:00 9,8 8,9 0 0 2 1 N 0 0,0
25.06.2018 03:00:00 10,3 8,7 0 0 4 2 N 0 0,0
25.06.2018 02:00:00 11,4 9,6 2 1 5 3 ENE 0 -
25.06.2018 01:00:00 11,8 10,0 4 2 5 3 E 0 0,0
25.06.2018 00:00:00 12,7 10,6 0 0 5 3 N 0 0,0
24.06.2018 23:00:00 14,0 10,6 4 2 4 2 E 0 0,0
24.06.2018 22:00:00 15,6 11,0 4 2 5 3 ENE 0 0,0
24.06.2018 21:00:00 18,2 11,0 2 1 15 8 ENE 0 0,0
24.06.2018 20:00:00 19,4 9,8 8 4 18 10 NNE 24 -
24.06.2018 19:00:00 20,1 9,6 15 8 24 13 N 60 0,0
24.06.2018 18:00:00 20,4 9,3 15 8 29 16 N 60 0,0
24.06.2018 17:00:00 20,5 10,0 21 11 29 16 N 42 0,0
24.06.2018 16:00:00 21,1 10,0 15 8 31 17 N 60 0,0
24.06.2018 15:00:00 20,4 8,7 16 9 28 15 NNW 36 0,0
24.06.2018 14:00:00 19,7 8,1 13 7 26 14 NNE 24 -
24.06.2018 13:00:00 18,7 7,5 15 8 28 15 NNE 36 0,0
24.06.2018 12:00:00 18,4 8,1 16 9 34 18 N 60 0,0
24.06.2018 11:00:00 17,5 8,1 11 6 22 12 NNE 48 0,0
24.06.2018 10:00:00 15,2 8,7 9 5 16 9 N 36 0,0
24.06.2018 09:00:00 13,3 9,0 8 4 11 6 NNW 12 0,0
24.06.2018 08:00:00 11,7 8,9 4 2 8 4 ENE 24 -
24.06.2018 07:00:00 9,4 8,3 0 0 8 4 N 0 0,0
24.06.2018 06:00:00 8,3 7,2 0 0 8 4 N 0 0,0
24.06.2018 05:00:00 9,2 8,1 4 2 5 3 E 0 0,0
24.06.2018 04:00:00 10,2 8,6 4 2 5 3 ESE 0 0,0
24.06.2018 03:00:00 10,8 8,4 2 1 5 3 N 0 0,0
24.06.2018 02:00:00 11,6 8,6 2 1 8 4 E 0 -
24.06.2018 01:00:00 12,3 8,6 0 0 15 8 N 0 0,0
24.06.2018 00:00:00 13,6 9,1 5 3 16 9 NNE 0 0,0
23.06.2018 23:00:00 14,7 8,9 9 5 18 10 NNE 0 0,0
23.06.2018 22:00:00 15,2 8,7 5 3 16 9 NNE 0 0,0
23.06.2018 21:00:00 17,6 8,7 9 5 18 10 N 36 0,0
23.06.2018 20:00:00 18,7 7,5 13 7 28 15 N 42 -
23.06.2018 19:00:00 19,9 8,6 13 7 29 16 NNE 60 0,0
23.06.2018 18:00:00 20,4 8,1 15 8 28 15 NNE 60 0,0
23.06.2018 17:00:00 20,3 7,6 13 7 28 15 NE 60 0,0
23.06.2018 16:00:00 19,9 7,6 15 8 28 15 N 60 0,0
23.06.2018 15:00:00 19,1 7,2 11 6 28 15 NNE 60 0,0
23.06.2018 14:00:00 18,5 7,6 11 6 29 16 N 60 -
23.06.2018 13:00:00 17,7 8,0 13 7 26 14 NNE 60 0,0
23.06.2018 12:00:00 16,6 6,7 15 8 26 14 N 48 0,0
23.06.2018 11:00:00 15,8 6,5 9 5 22 12 NNE 48 0,0
23.06.2018 10:00:00 14,4 7,7 11 6 21 11 NNE 60 0,0
23.06.2018 09:00:00 12,7 7,8 8 4 15 8 NNE 60 0,0
23.06.2018 08:00:00 10,7 7,6 5 3 11 6 NNE 60 -
23.06.2018 07:00:00 7,9 7,1 0 0 4 2 N 12 0,0
23.06.2018 06:00:00 6,1 5,4 0 0 4 2 N 0 0,0
23.06.2018 05:00:00 6,7 6,0 4 2 4 2 E 0 0,0
23.06.2018 04:00:00 7,3 6,2 2 1 5 3 ESE 0 0,0
23.06.2018 03:00:00 7,9 6,7 0 0 5 3 N 0 0,0
23.06.2018 02:00:00 8,7 7,1 0 0 4 2 N 0 -
23.06.2018 01:00:00 10,0 7,6 0 0 4 2 N 0 0,0
23.06.2018 00:00:00 11,2 7,9 0 0 9 5 N 0 0,0
22.06.2018 23:00:00 12,6 7,7 4 2 8 4 NE 0 0,0
22.06.2018 22:00:00 12,6 8,3 4 2 5 3 ENE 0 0,0
22.06.2018 21:00:00 15,8 7,3 4 2 9 5 ENE 48 0,0
22.06.2018 20:00:00 17,4 6,6 4 2 15 8 NE 18 -
22.06.2018 19:00:00 17,2 5,8 8 4 18 10 NNE 0 0,0
22.06.2018 18:00:00 17,5 6,1 15 8 28 15 NNE 6 0,0
22.06.2018 17:00:00 17,1 6,0 15 8 34 18 N 30 0,0
22.06.2018 16:00:00 17,4 6,3 22 12 34 18 NNW 42 0,0
22.06.2018 15:00:00 16,4 5,9 16 9 31 17 N 30 0,0
22.06.2018 14:00:00 16,7 6,8 18 10 35 19 N 36 -
22.06.2018 13:00:00 16,2 6,0 16 9 29 16 N 48 0,0
22.06.2018 12:00:00 15,8 5,4 18 10 34 18 N 60 0,0
22.06.2018 11:00:00 15,0 4,7 18 10 35 19 N 60 0,0
22.06.2018 10:00:00 13,4 5,0 16 9 31 17 N 60 0,0
22.06.2018 09:00:00 12,3 5,5 11 6 22 12 NNE 60 0,0
22.06.2018 08:00:00 10,6 5,6 8 4 15 8 NNE 60 -
22.06.2018 07:00:00 8,9 5,3 2 1 5 3 ENE 12 0,0
22.06.2018 06:00:00 7,2 4,5 4 2 13 7 ENE 0 0,0
22.06.2018 05:00:00 7,7 4,5 11 6 16 9 N 0 0,0
22.06.2018 04:00:00 8,4 4,2 8 4 13 7 N 0 0,0
22.06.2018 03:00:00 8,4 4,6 4 2 11 6 N 0 0,0
22.06.2018 02:00:00 9,5 4,3 9 5 16 9 N 0 -
22.06.2018 01:00:00 11,1 4,3 9 5 29 16 N 0 0,0
22.06.2018 00:00:00 12,5 5,2 16 9 34 18 N 0 0,0
21.06.2018 23:00:00 14,2 5,3 16 9 28 15 N 0 0,0
21.06.2018 22:00:00 16,3 6,1 13 7 29 16 N 12 0,0
21.06.2018 21:00:00 18,3 8,0 18 10 35 19 N 60 0,0
21.06.2018 20:00:00 19,7 9,6 22 12 35 19 NNW 48 -
21.06.2018 19:00:00 21,3 11,6 21 11 35 19 NNW 54 0,0
21.06.2018 18:00:00 21,3 10,7 21 11 37 20 NW 24 0,0
21.06.2018 17:00:00 21,4 14,5 18 10 37 20 NW 42 0,0
21.06.2018 16:00:00 22,4 15,0 26 14 35 19 NW 48 0,0
21.06.2018 15:00:00 23,0 15,6 21 11 39 21 NW 36 0,0
21.06.2018 14:00:00 23,8 15,0 21 11 35 19 NW 42 -
21.06.2018 13:00:00 24,5 15,4 21 11 35 19 NW 30 0,0
21.06.2018 12:00:00 25,5 15,5 16 9 29 16 WNW 48 0,0
21.06.2018 11:00:00 23,8 14,8 13 7 26 14 NW 42 0,0
21.06.2018 10:00:00 23,8 15,6 8 4 16 9 NW 60 0,0
21.06.2018 09:00:00 22,1 14,2 5 3 11 6 S 48 0,0
21.06.2018 08:00:00 19,5 16,5 0 0 4 2 N 36 -
21.06.2018 07:00:00 17,1 15,3 0 0 4 2 N 18 0,0
21.06.2018 06:00:00 14,9 14,3 0 0 4 2 N 0 0,0
21.06.2018 05:00:00 14,9 14,3 0 0 4 2 N 0 0,0
21.06.2018 04:00:00 15,4 14,6 0 0 5 3 N 0 0,0
21.06.2018 03:00:00 16,4 15,4 4 2 4 2 ESE 0 0,0
21.06.2018 02:00:00 17,1 15,6 0 0 5 3 N 0 -
21.06.2018 01:00:00 18,0 16,2 0 0 5 3 N 0 0,0
21.06.2018 00:00:00 18,7 16,5 0 0 5 3 N 0 0,0
20.06.2018 23:00:00 20,5 16,7 0 0 4 2 N 0 0,0
20.06.2018 22:00:00 21,7 16,6 0 0 4 2 N 0 0,0
20.06.2018 21:00:00 26,3 17,4 0 0 13 7 N 60 0,0
20.06.2018 20:00:00 27,9 15,9 9 5 15 8 N 60 -
20.06.2018 19:00:00 29,3 16,5 8 4 18 10 NW 60 0,0
20.06.2018 18:00:00 29,6 15,7 8 4 21 11 NW 60 0,0
20.06.2018 17:00:00 29,3 14,7 8 4 21 11 NW 60 0,0
20.06.2018 16:00:00 29,2 15,7 5 3 15 8 NW 60 0,0
20.06.2018 15:00:00 28,1 15,4 9 5 18 10 N 60 0,0
20.06.2018 14:00:00 28,3 16,9 4 2 13 7 WNW 60 -
20.06.2018 13:00:00 26,6 15,6 9 5 15 8 N 60 0,0
20.06.2018 12:00:00 25,4 17,1 4 2 11 6 N 60 0,0
20.06.2018 11:00:00 23,4 16,2 4 2 8 4 N 60 0,0
20.06.2018 10:00:00 21,0 16,2 4 2 8 4 WNW 60 0,0
20.06.2018 09:00:00 17,1 15,4 0 0 5 3 N 24 0,0
20.06.2018 08:00:00 15,1 14,8 0 0 5 3 N 0 -
20.06.2018 07:00:00 14,2 14,0 2 1 5 3 ESE 0 0,2
20.06.2018 06:00:00 12,1 11,6 0 0 4 2 N 0 0,0
20.06.2018 05:00:00 13,2 12,7 0 0 4 2 N 0 0,0
20.06.2018 04:00:00 13,7 13,2 0 0 0 0 N 0 0,0
20.06.2018 03:00:00 14,3 13,7 0 0 4 2 N 0 0,0
20.06.2018 02:00:00 14,9 14,1 0 0 0 0 N 0 -
20.06.2018 01:00:00 15,7 14,6 0 0 4 2 N 0 0,0
20.06.2018 00:00:00 16,8 14,8 0 0 11 6 N 0 0,0
19.06.2018 23:00:00 19,2 15,3 8 4 18 10 N 0 0,0
19.06.2018 22:00:00 20,3 15,3 11 6 18 10 N 0 0,0
19.06.2018 21:00:00 22,5 15,6 9 5 21 11 N 60 0,0
19.06.2018 20:00:00 24,1 15,0 13 7 22 12 N 60 -
19.06.2018 19:00:00 24,9 15,8 13 7 26 14 N 60 0,0
19.06.2018 18:00:00 25,3 16,4 13 7 21 11 NNW 42 0,0
19.06.2018 17:00:00 25,9 15,9 11 6 22 12 NNW 60 0,0
19.06.2018 16:00:00 25,5 15,8 8 4 18 10 NW 60 0,0
19.06.2018 15:00:00 25,4 15,4 5 3 15 8 WNW 60 0,0
19.06.2018 14:00:00 24,4 15,3 4 2 15 8 WNW 60 -
19.06.2018 13:00:00 23,3 15,1 5 3 21 11 N 54 0,0
19.06.2018 12:00:00 22,8 15,1 4 2 18 10 N 48 0,0
19.06.2018 11:00:00 21,8 14,7 4 2 9 5 W 54 0,0
19.06.2018 10:00:00 19,7 14,3 4 2 13 7 NNW 36 0,0
19.06.2018 09:00:00 19,2 14,5 2 1 8 4 N 60 0,0
19.06.2018 08:00:00 17,5 14,4 0 0 0 0 N 60 -
19.06.2018 07:00:00 14,2 13,7 0 0 2 1 N 12 0,0
19.06.2018 06:00:00 12,4 11,9 0 0 4 2 N 0 0,0
19.06.2018 05:00:00 12,6 12,3 0 0 0 0 N 0 0,0
19.06.2018 04:00:00 12,1 11,6 0 0 4 2 N 0 0,0

tt = temperature
td = dewpoint
ff = wind speed
fx = gusts
dd = wind direction
sd = sunshine duration
rr = precipitation

Next stations